Time;durP1;ratioP1;P1;durP2;ratioP2;P2;SDS_P1;SDS_P2;PMS_P1;PMS_P2;Temp;Humidity;BMP_temperature;BMP_pressure;BME280_temperature;BME280_humidity;BME280_pressure;Samples;Min_cycle;Max_cycle;Signal;HPM_P1;HPM_P2
2023/07/30 00:01:00;;;;;;;91.23;59.13;;;;;;;;;;5007970;28;20617;-52
2023/07/30 00:03:25;;;;;;;126.90;46.95;;;;;;;;;;5007894;28;20026;-52
2023/07/30 00:05:54;;;;;;;84.25;48.95;;;;;;;;;;5007513;28;20038;-52
2023/07/30 00:08:19;;;;;;;95.45;52.55;;;;;;;;;;5008982;28;20625;-52
2023/07/30 00:10:44;;;;;;;76.65;33.13;;;;;;;;;;5006553;28;20549;-51
2023/07/30 00:13:09;;;;;;;72.47;16.30;;;;;;;;;;5008602;28;20515;-51
2023/07/30 00:15:35;;;;;;;92.22;25.52;;;;;;;;;;5006337;28;20816;-52
2023/07/30 00:18:00;;;;;;;101.23;62.23;;;;;;;;;;5006526;28;20030;-52
2023/07/30 00:20:25;;;;;;;122.67;43.60;;;;;;;;;;5004970;28;20042;-51
2023/07/30 00:22:50;;;;;;;76.55;28.17;;;;;;;;;;5008291;28;20282;-53
2023/07/30 00:25:16;;;;;;;75.47;24.73;;;;;;;;;;5006351;28;20029;-53
2023/07/30 00:27:41;;;;;;;94.53;42.93;;;;;;;;;;5006743;28;20259;-52
2023/07/30 00:30:06;;;;;;;78.97;27.97;;;;;;;;;;5008220;28;20268;-51
2023/07/30 00:32:31;;;;;;;174.05;66.75;;;;;;;;;;5006081;28;20269;-53
2023/07/30 00:34:57;;;;;;;71.90;20.30;;;;;;;;;;5005938;28;20570;-52
2023/07/30 00:37:22;;;;;;;56.67;5.13;;;;;;;;;;5004832;28;20646;-51
2023/07/30 00:39:47;;;;;;;67.30;29.00;;;;;;;;;;5008167;28;20304;-52
2023/07/30 00:42:12;;;;;;;58.50;9.87;;;;;;;;;;5008304;28;20322;-51
2023/07/30 00:44:38;;;;;;;143.03;52.57;;;;;;;;;;5004249;28;20788;-52
2023/07/30 00:47:03;;;;;;;155.27;121.05;;;;;;;;;;5006069;28;20280;-51
2023/07/30 00:49:28;;;;;;;156.63;60.83;;;;;;;;;;5005713;28;20049;-52
2023/07/30 00:51:56;;;;;;;100.88;75.82;;;;;;;;;;5006778;28;20487;-52
2023/07/30 00:54:21;;;;;;;97.93;57.30;;;;;;;;;;5013241;28;20116;-54
2023/07/30 00:56:50;;;;;;;79.10;27.80;;;;;;;;;;5005600;28;20128;-51
2023/07/30 00:59:15;;;;;;;121.20;106.97;;;;;;;;;;5007937;28;20030;-52
2023/07/30 01:01:41;;;;;;;111.77;8.93;;;;;;;;;;5004665;28;20403;-53
2023/07/30 01:04:06;;;;;;;76.25;5.57;;;;;;;;;;5005518;28;20660;-52
2023/07/30 01:06:32;;;;;;;166.23;90.00;;;;;;;;;;5006545;28;20608;-52
2023/07/30 01:08:58;;;;;;;151.50;131.07;;;;;;;;;;5007772;28;20626;-52
2023/07/30 01:11:23;;;;;;;132.32;84.95;;;;;;;;;;5005785;28;20057;-52
2023/07/30 01:13:49;;;;;;;56.53;13.98;;;;;;;;;;5004815;28;20120;-52
2023/07/30 01:16:14;;;;;;;48.38;5.20;;;;;;;;;;5006405;28;20069;-51
2023/07/30 01:18:39;;;;;;;120.67;9.20;;;;;;;;;;5005536;28;20068;-51
2023/07/30 01:21:04;;;;;;;52.03;4.32;;;;;;;;;;5005699;28;20814;-52
2023/07/30 01:23:30;;;;;;;142.97;54.57;;;;;;;;;;5004081;28;20029;-52
2023/07/30 01:26:08;;;;;;;141.40;103.38;;;;;;;;;;5004128;28;20296;-51
2023/07/30 01:28:36;;;;;;;198.80;117.57;;;;;;;;;;5005038;28;20495;-51
2023/07/30 01:31:02;;;;;;;159.07;130.90;;;;;;;;;;5005997;28;20048;-51
2023/07/30 01:33:28;;;;;;;95.90;58.08;;;;;;;;;;5003566;28;20025;-52
2023/07/30 01:35:54;;;;;;;142.45;112.00;;;;;;;;;;5008174;28;20045;-52
2023/07/30 01:38:19;;;;;;;123.18;102.65;;;;;;;;;;5005461;28;20040;-51
2023/07/30 01:40:45;;;;;;;122.80;75.53;;;;;;;;;;5005314;28;20034;-53
2023/07/30 01:43:10;;;;;;;115.43;47.27;;;;;;;;;;5006302;28;20677;-51
2023/07/30 01:45:35;;;;;;;119.80;13.13;;;;;;;;;;5005599;28;20826;-51
2023/07/30 01:48:00;;;;;;;59.08;5.50;;;;;;;;;;5005644;28;20337;-51
2023/07/30 01:50:26;;;;;;;54.45;5.50;;;;;;;;;;5005514;28;20045;-51
2023/07/30 01:52:51;;;;;;;56.03;5.60;;;;;;;;;;5005978;28;20029;-51
2023/07/30 01:55:17;;;;;;;56.80;6.13;;;;;;;;;;5005478;28;20476;-51
2023/07/30 01:57:42;;;;;;;111.10;9.77;;;;;;;;;;5002805;28;20638;-54
2023/07/30 02:00:08;;;;;;;65.18;6.57;;;;;;;;;;5005154;28;20049;-51
2023/07/30 02:02:35;;;;;;;107.93;10.15;;;;;;;;;;5009762;28;20168;-51
2023/07/30 02:05:00;;;;;;;55.50;5.60;;;;;;;;;;5011257;28;20036;-51
2023/07/30 02:07:25;;;;;;;69.10;6.55;;;;;;;;;;5009489;28;20037;-51
2023/07/30 02:09:51;;;;;;;69.87;6.77;;;;;;;;;;5010084;28;20014;-51
2023/07/30 02:12:16;;;;;;;55.83;5.90;;;;;;;;;;5010012;28;20034;-51
2023/07/30 02:14:41;;;;;;;100.38;8.90;;;;;;;;;;5007203;28;20033;-52
2023/07/30 02:17:06;;;;;;;40.80;4.78;;;;;;;;;;5008826;28;20119;-51
2023/07/30 02:19:32;;;;;;;94.73;8.10;;;;;;;;;;5007980;28;20042;-52
2023/07/30 02:21:57;;;;;;;71.23;6.47;;;;;;;;;;5010500;28;20294;-51
2023/07/30 02:24:22;;;;;;;44.13;4.73;;;;;;;;;;5009642;28;20292;-51
2023/07/30 02:26:48;;;;;;;110.77;9.13;;;;;;;;;;5007931;28;20285;-51
2023/07/30 02:29:13;;;;;;;45.20;4.82;;;;;;;;;;5009636;28;20809;-51
2023/07/30 02:31:39;;;;;;;108.87;9.07;;;;;;;;;;5007156;28;20567;-52
2023/07/30 02:34:04;;;;;;;52.37;5.80;;;;;;;;;;5008764;28;20496;-50
2023/07/30 02:36:29;;;;;;;67.97;6.40;;;;;;;;;;5007144;28;20374;-51
2023/07/30 02:38:54;;;;;;;54.63;5.97;;;;;;;;;;5008886;28;20303;-51
2023/07/30 02:41:19;;;;;;;49.90;5.93;;;;;;;;;;5010777;28;20045;-51
2023/07/30 02:43:45;;;;;;;132.57;10.43;;;;;;;;;;5007684;28;20333;-50
2023/07/30 02:46:10;;;;;;;54.42;5.15;;;;;;;;;;5009569;28;20379;-51
2023/07/30 02:48:35;;;;;;;91.07;8.07;;;;;;;;;;5008863;28;20022;-50
2023/07/30 02:51:00;;;;;;;81.60;7.40;;;;;;;;;;5008215;28;20044;-52
2023/07/30 02:53:26;;;;;;;58.87;5.23;;;;;;;;;;5008828;28;20711;-51
2023/07/30 02:55:51;;;;;;;63.00;6.10;;;;;;;;;;5005664;28;20276;-51
2023/07/30 02:58:16;;;;;;;74.50;6.97;;;;;;;;;;5006252;28;20330;-50
2023/07/30 03:00:41;;;;;;;109.63;9.30;;;;;;;;;;5005917;28;20673;-51
2023/07/30 03:03:07;;;;;;;46.60;5.43;;;;;;;;;;5007916;28;20033;-51
2023/07/30 03:05:32;;;;;;;75.65;7.13;;;;;;;;;;5005490;28;20781;-51
2023/07/30 03:07:57;;;;;;;61.75;6.20;;;;;;;;;;5007767;28;20087;-52
2023/07/30 03:10:22;;;;;;;52.37;5.67;;;;;;;;;;5010027;28;20151;-51
2023/07/30 03:12:47;;;;;;;119.47;9.97;;;;;;;;;;5007014;28;20026;-50
2023/07/30 03:15:13;;;;;;;54.37;6.10;;;;;;;;;;5007585;28;20036;-51
2023/07/30 03:17:38;;;;;;;92.43;7.78;;;;;;;;;;5007186;28;20463;-51
2023/07/30 03:20:04;;;;;;;68.67;6.47;;;;;;;;;;5007500;28;20121;-51
2023/07/30 03:22:29;;;;;;;65.50;6.32;;;;;;;;;;5007470;28;20736;-51
2023/07/30 03:24:54;;;;;;;51.85;6.05;;;;;;;;;;5006797;28;20022;-52
2023/07/30 03:27:19;;;;;;;54.23;5.77;;;;;;;;;;5008856;28;20256;-50
2023/07/30 03:29:45;;;;;;;85.70;7.80;;;;;;;;;;5006883;28;20265;-52
2023/07/30 03:32:10;;;;;;;53.40;6.47;;;;;;;;;;5007650;28;20287;-51
2023/07/30 03:34:35;;;;;;;89.23;7.83;;;;;;;;;;5007036;28;20273;-51
2023/07/30 03:37:00;;;;;;;61.03;6.57;;;;;;;;;;5008531;28;20403;-50
2023/07/30 03:39:26;;;;;;;62.10;6.73;;;;;;;;;;5007938;28;20959;-54
2023/07/30 03:41:51;;;;;;;135.05;11.30;;;;;;;;;;5004209;28;20519;-51
2023/07/30 03:44:16;;;;;;;51.33;5.97;;;;;;;;;;5005873;28;20032;-53
2023/07/30 03:46:42;;;;;;;123.93;10.60;;;;;;;;;;5004133;28;20265;-51
2023/07/30 03:49:07;;;;;;;84.10;7.43;;;;;;;;;;5006228;28;20283;-50
2023/07/30 03:51:33;;;;;;;68.10;6.80;;;;;;;;;;5006975;28;20037;-51
2023/07/30 03:53:58;;;;;;;67.05;6.60;;;;;;;;;;4968693;28;1132562;-51
2023/07/30 03:56:25;;;;;;;74.13;6.93;;;;;;;;;;5005700;28;20041;-50
2023/07/30 03:58:50;;;;;;;114.53;9.88;;;;;;;;;;5006456;28;20372;-51
2023/07/30 04:01:15;;;;;;;57.43;5.90;;;;;;;;;;5006524;28;20041;-51
2023/07/30 04:03:40;;;;;;;130.97;11.37;;;;;;;;;;5007028;28;20320;-50
2023/07/30 04:06:06;;;;;;;61.53;6.67;;;;;;;;;;5006619;28;20287;-51
2023/07/30 04:08:31;;;;;;;62.83;6.40;;;;;;;;;;5009157;28;20665;-50
2023/07/30 04:10:56;;;;;;;77.07;7.33;;;;;;;;;;5006225;28;20068;-51
2023/07/30 04:13:22;;;;;;;64.18;6.65;;;;;;;;;;5009263;28;20034;-51
2023/07/30 04:15:47;;;;;;;118.80;10.23;;;;;;;;;;5004882;28;20071;-52
2023/07/30 04:18:12;;;;;;;67.53;6.97;;;;;;;;;;5006457;28;20268;-51
2023/07/30 04:20:38;;;;;;;65.97;7.13;;;;;;;;;;5005578;28;20040;-50
2023/07/30 04:23:03;;;;;;;66.13;7.30;;;;;;;;;;5006634;28;20060;-51
2023/07/30 04:25:28;;;;;;;63.20;6.80;;;;;;;;;;5005599;28;20484;-51
2023/07/30 04:27:54;;;;;;;121.13;10.83;;;;;;;;;;5004569;28;20709;-51
2023/07/30 04:30:19;;;;;;;55.75;6.07;;;;;;;;;;5005404;28;20275;-51
2023/07/30 04:32:44;;;;;;;124.78;10.93;;;;;;;;;;5005757;28;20025;-51
2023/07/30 04:35:09;;;;;;;51.43;6.27;;;;;;;;;;5005982;28;20088;-51
2023/07/30 04:37:35;;;;;;;67.82;6.97;;;;;;;;;;5007426;28;20592;-53
2023/07/30 04:40:00;;;;;;;79.57;7.87;;;;;;;;;;5007064;28;20033;-51
2023/07/30 04:42:25;;;;;;;54.78;6.32;;;;;;;;;;5007251;28;20700;-52
2023/07/30 04:44:50;;;;;;;119.95;10.65;;;;;;;;;;5003621;28;20402;-51
2023/07/30 04:47:16;;;;;;;69.00;7.07;;;;;;;;;;5007490;28;20038;-52
2023/07/30 04:49:41;;;;;;;91.70;8.67;;;;;;;;;;5005655;28;20028;-51
2023/07/30 04:52:07;;;;;;;64.72;6.88;;;;;;;;;;5007164;28;20034;-52
2023/07/30 04:54:33;;;;;;;65.55;6.63;;;;;;;;;;5005588;28;20041;-51
2023/07/30 04:56:59;;;;;;;61.97;7.03;;;;;;;;;;5005660;28;20052;-53
2023/07/30 04:59:24;;;;;;;57.25;6.65;;;;;;;;;;5005374;28;20090;-51
2023/07/30 05:01:49;;;;;;;103.20;9.63;;;;;;;;;;5004463;28;20045;-51
2023/07/30 05:04:14;;;;;;;66.97;7.60;;;;;;;;;;5006458;28;21192;-52
2023/07/30 05:06:40;;;;;;;92.87;41.27;;;;;;;;;;5006683;28;20682;-51
2023/07/30 05:09:05;;;;;;;69.90;7.27;;;;;;;;;;5006707;28;20642;-52
2023/07/30 05:11:30;;;;;;;75.80;7.53;;;;;;;;;;5007236;28;20297;-52
2023/07/30 05:13:55;;;;;;;122.05;11.00;;;;;;;;;;5004490;28;20315;-54
2023/07/30 05:16:21;;;;;;;63.23;21.13;;;;;;;;;;5005946;28;20049;-51
2023/07/30 05:18:46;;;;;;;148.18;51.38;;;;;;;;;;5008520;28;20092;-51
2023/07/30 05:21:11;;;;;;;153.20;129.52;;;;;;;;;;5006463;28;20037;-52
2023/07/30 05:23:37;;;;;;;118.00;46.97;;;;;;;;;;5006243;28;20406;-51
2023/07/30 05:26:02;;;;;;;127.50;102.40;;;;;;;;;;5005033;28;20372;-52
2023/07/30 05:28:27;;;;;;;102.57;42.10;;;;;;;;;;5007951;28;20345;-51
2023/07/30 05:30:52;;;;;;;358.57;320.43;;;;;;;;;;5003142;28;20030;-52
2023/07/30 05:33:18;;;;;;;462.47;422.43;;;;;;;;;;5007262;28;20265;-53
2023/07/30 05:35:44;;;;;;;137.90;64.13;;;;;;;;;;5004032;28;20276;-53
2023/07/30 05:38:09;;;;;;;190.40;110.53;;;;;;;;;;5006269;28;20276;-51
2023/07/30 05:40:35;;;;;;;431.33;395.37;;;;;;;;;;5006149;28;20049;-51
2023/07/30 05:43:00;;;;;;;462.98;423.20;;;;;;;;;;5003042;28;21768;-53
2023/07/30 05:45:26;;;;;;;146.68;96.32;;;;;;;;;;5006057;28;20033;-51
2023/07/30 05:47:51;;;;;;;197.48;85.32;;;;;;;;;;5005602;28;20719;-52
2023/07/30 05:50:16;;;;;;;331.33;300.77;;;;;;;;;;5011496;28;20523;-51
2023/07/30 05:52:42;;;;;;;130.80;49.55;;;;;;;;;;5003995;28;20821;-51
2023/07/30 05:55:07;;;;;;;257.40;232.67;;;;;;;;;;5005894;28;20037;-51
2023/07/30 05:57:32;;;;;;;67.10;6.63;;;;;;;;;;5005086;28;20034;-51
2023/07/30 05:59:57;;;;;;;202.97;71.07;;;;;;;;;;5004816;28;20053;-52
2023/07/30 06:02:23;;;;;;;75.10;20.40;;;;;;;;;;5005742;28;20717;-51
2023/07/30 06:04:48;;;;;;;140.07;28.17;;;;;;;;;;5002612;28;20026;-51
2023/07/30 06:07:13;;;;;;;197.35;172.98;;;;;;;;;;5004693;28;20040;-53
2023/07/30 06:09:39;;;;;;;503.58;461.45;;;;;;;;;;5006435;28;20288;-52
2023/07/30 06:12:04;;;;;;;167.95;135.75;;;;;;;;;;5005509;28;20469;-51
2023/07/30 06:14:29;;;;;;;239.80;214.50;;;;;;;;;;5004962;28;20029;-53
2023/07/30 06:16:55;;;;;;;351.97;306.90;;;;;;;;;;5003346;28;20033;-51
2023/07/30 06:19:20;;;;;;;229.57;205.38;;;;;;;;;;5005394;28;20276;-52
2023/07/30 06:21:45;;;;;;;276.88;230.90;;;;;;;;;;5003560;28;20029;-52
2023/07/30 06:24:11;;;;;;;200.63;152.07;;;;;;;;;;5004691;28;20044;-52
2023/07/30 06:26:36;;;;;;;484.20;440.73;;;;;;;;;;5004612;28;20116;-51
2023/07/30 06:29:01;;;;;;;436.75;393.13;;;;;;;;;;5003808;28;20316;-53
2023/07/30 06:31:27;;;;;;;191.40;172.90;;;;;;;;;;5005081;28;20123;-54
2023/07/30 06:33:52;;;;;;;184.80;102.07;;;;;;;;;;5002966;28;20083;-52
2023/07/30 06:36:17;;;;;;;466.30;425.58;;;;;;;;;;5004749;28;20037;-52
2023/07/30 06:38:42;;;;;;;444.83;405.77;;;;;;;;;;5007754;28;20037;-52
2023/07/30 06:41:08;;;;;;;129.20;92.43;;;;;;;;;;5002014;28;20438;-52
2023/07/30 06:43:33;;;;;;;131.75;68.72;;;;;;;;;;5004570;28;20034;-55
2023/07/30 06:45:58;;;;;;;192.83;113.50;;;;;;;;;;5004121;28;20096;-52
2023/07/30 06:48:23;;;;;;;363.10;327.58;;;;;;;;;;5007771;28;20668;-53
2023/07/30 06:50:49;;;;;;;432.10;388.87;;;;;;;;;;5004388;28;20347;-52
2023/07/30 06:53:14;;;;;;;339.70;304.60;;;;;;;;;;5014721;28;20399;-52
2023/07/30 06:55:39;;;;;;;476.10;432.08;;;;;;;;;;5007261;28;20036;-52
2023/07/30 06:58:05;;;;;;;259.73;233.30;;;;;;;;;;5006739;28;20122;-52
2023/07/30 07:00:30;;;;;;;200.20;180.60;;;;;;;;;;5009835;28;20330;-53
2023/07/30 07:02:55;;;;;;;352.77;308.37;;;;;;;;;;5006588;28;20073;-52
2023/07/30 07:05:21;;;;;;;439.00;400.30;;;;;;;;;;5007842;28;20284;-51
2023/07/30 07:07:46;;;;;;;365.52;332.95;;;;;;;;;;5008271;28;21189;-52
2023/07/30 07:10:12;;;;;;;329.43;297.73;;;;;;;;;;5010353;28;20029;-53
2023/07/30 07:12:40;;;;;;;303.87;276.73;;;;;;;;;;5009271;28;20267;-52
2023/07/30 07:15:05;;;;;;;302.00;248.25;;;;;;;;;;5006986;28;20268;-53
2023/07/30 07:17:31;;;;;;;235.40;211.52;;;;;;;;;;5007440;28;20438;-52
2023/07/30 07:19:56;;;;;;;266.67;211.00;;;;;;;;;;5005202;28;20391;-52
2023/07/30 07:22:22;;;;;;;366.60;330.35;;;;;;;;;;5007877;28;20608;-52
2023/07/30 07:24:47;;;;;;;228.40;201.68;;;;;;;;;;5006629;28;20113;-51
2023/07/30 07:27:12;;;;;;;310.30;280.97;;;;;;;;;;5007391;28;20050;-54
2023/07/30 07:29:38;;;;;;;294.00;264.53;;;;;;;;;;5010145;28;20261;-52
2023/07/30 07:32:03;;;;;;;376.90;336.00;;;;;;;;;;5007018;28;20045;-54
2023/07/30 07:34:28;;;;;;;364.75;328.90;;;;;;;;;;5008714;28;20700;-52
2023/07/30 07:36:54;;;;;;;306.53;242.97;;;;;;;;;;5005689;28;20531;-52
2023/07/30 07:39:19;;;;;;;245.70;222.37;;;;;;;;;;5008905;28;20268;-52
2023/07/30 07:41:44;;;;;;;361.20;326.75;;;;;;;;;;5007984;28;20281;-52
2023/07/30 07:44:09;;;;;;;321.00;289.95;;;;;;;;;;5005085;28;20036;-52
2023/07/30 07:46:35;;;;;;;209.70;188.13;;;;;;;;;;5007668;28;20203;-52
2023/07/30 07:49:00;;;;;;;420.65;379.05;;;;;;;;;;5006566;28;20021;-52
2023/07/30 07:51:25;;;;;;;354.27;317.10;;;;;;;;;;5007861;28;20247;-52
2023/07/30 07:53:51;;;;;;;277.20;250.57;;;;;;;;;;5007494;28;20068;-52
2023/07/30 07:56:16;;;;;;;348.23;313.47;;;;;;;;;;5007277;28;20833;-51
2023/07/30 07:58:42;;;;;;;398.60;362.05;;;;;;;;;;5005103;28;20280;-52
2023/07/30 08:01:08;;;;;;;418.42;354.95;;;;;;;;;;5008141;28;20046;-54
2023/07/30 08:03:33;;;;;;;321.23;291.08;;;;;;;;;;5009321;28;20446;-52
2023/07/30 08:05:58;;;;;;;237.40;168.30;;;;;;;;;;5006168;28;20034;-52
2023/07/30 08:08:25;;;;;;;370.10;336.23;;;;;;;;;;5008454;28;20125;-54
2023/07/30 08:10:50;;;;;;;280.10;254.48;;;;;;;;;;5007467;28;20840;-52
2023/07/30 08:13:16;;;;;;;208.23;151.97;;;;;;;;;;5007525;28;20025;-52
2023/07/30 08:15:41;;;;;;;330.80;296.45;;;;;;;;;;5007468;28;20034;-52
2023/07/30 08:18:06;;;;;;;259.67;207.10;;;;;;;;;;5006692;28;20018;-52
2023/07/30 08:20:31;;;;;;;149.63;74.30;;;;;;;;;;5007726;28;20036;-52
2023/07/30 08:22:57;;;;;;;350.83;275.17;;;;;;;;;;5012923;28;20022;-52
2023/07/30 08:25:22;;;;;;;128.73;104.00;;;;;;;;;;5007059;28;20896;-53
2023/07/30 08:27:47;;;;;;;268.67;241.70;;;;;;;;;;5008939;28;20021;-52
2023/07/30 08:30:12;;;;;;;152.65;117.43;;;;;;;;;;5006853;28;20140;-52
2023/07/30 08:32:38;;;;;;;263.13;236.45;;;;;;;;;;5007946;28;20032;-52
2023/07/30 08:35:04;;;;;;;324.60;289.58;;;;;;;;;;5005994;28;20041;-52
2023/07/30 08:37:29;;;;;;;215.43;175.25;;;;;;;;;;5009909;28;20029;-52
2023/07/30 08:39:54;;;;;;;243.07;204.98;;;;;;;;;;5005895;28;20025;-52
2023/07/30 08:42:20;;;;;;;314.00;278.10;;;;;;;;;;5007741;28;20034;-51
2023/07/30 08:44:45;;;;;;;227.17;202.47;;;;;;;;;;5006886;28;20327;-53
2023/07/30 08:47:11;;;;;;;385.25;321.20;;;;;;;;;;5005369;28;20275;-52
2023/07/30 08:49:36;;;;;;;195.55;144.95;;;;;;;;;;5006291;28;20381;-52
2023/07/30 08:52:02;;;;;;;264.25;209.10;;;;;;;;;;5005637;28;20033;-53
2023/07/30 08:54:29;;;;;;;333.77;301.35;;;;;;;;;;5007517;28;20026;-54
2023/07/30 08:56:54;;;;;;;336.48;296.02;;;;;;;;;;5004090;28;20106;-52
2023/07/30 08:59:21;;;;;;;243.17;220.73;;;;;;;;;;5008762;28;20034;-53
2023/07/30 09:01:50;;;;;;;119.30;100.10;;;;;;;;;;5008024;28;20296;-53
2023/07/30 09:04:17;;;;;;;348.40;263.83;;;;;;;;;;5005014;28;20112;-52
2023/07/30 09:06:42;;;;;;;237.93;211.20;;;;;;;;;;5004884;28;20037;-51
2023/07/30 09:09:09;;;;;;;248.80;150.87;;;;;;;;;;5003450;28;20025;-51
2023/07/30 09:11:34;;;;;;;194.02;173.25;;;;;;;;;;5005485;28;20273;-52
2023/07/30 09:14:00;;;;;;;177.32;108.68;;;;;;;;;;5003507;28;20044;-51
2023/07/30 09:16:26;;;;;;;201.45;180.05;;;;;;;;;;5005750;28;20467;-53
2023/07/30 09:18:53;;;;;;;232.40;206.05;;;;;;;;;;5005543;28;21138;-51
2023/07/30 09:21:18;;;;;;;203.98;176.50;;;;;;;;;;5005719;28;20038;-51
2023/07/30 09:23:45;;;;;;;136.87;120.97;;;;;;;;;;5004009;28;20436;-51
2023/07/30 09:26:10;;;;;;;245.65;151.35;;;;;;;;;;5003907;28;20268;-52
2023/07/30 09:28:36;;;;;;;204.30;182.00;;;;;;;;;;5005366;28;20026;-51
2023/07/30 09:31:02;;;;;;;348.73;236.90;;;;;;;;;;5003255;28;20026;-51
2023/07/30 09:33:28;;;;;;;374.27;286.65;;;;;;;;;;5004355;28;20104;-51
2023/07/30 09:35:54;;;;;;;139.03;105.63;;;;;;;;;;5005327;28;20053;-52
2023/07/30 09:38:20;;;;;;;373.85;252.32;;;;;;;;;;5010460;28;20026;-51
2023/07/30 09:40:47;;;;;;;290.90;222.32;;;;;;;;;;5004409;28;20167;-51
2023/07/30 09:43:12;;;;;;;213.27;131.05;;;;;;;;;;5005375;28;20033;-51
2023/07/30 09:45:38;;;;;;;162.93;137.30;;;;;;;;;;5005418;28;20034;-52
2023/07/30 09:48:05;;;;;;;514.33;271.42;;;;;;;;;;5005169;28;20961;-51
2023/07/30 09:50:30;;;;;;;274.30;147.75;;;;;;;;;;5005590;28;20030;-52
2023/07/30 09:52:56;;;;;;;158.70;109.85;;;;;;;;;;5004439;28;20076;-51
2023/07/30 09:55:21;;;;;;;210.75;164.35;;;;;;;;;;5005240;28;20024;-53
2023/07/30 09:57:47;;;;;;;134.27;109.32;;;;;;;;;;5005927;28;20022;-51
2023/07/30 10:00:12;;;;;;;156.15;67.88;;;;;;;;;;5003284;28;20091;-52
2023/07/30 10:02:44;;;;;;;416.45;196.57;;;;;;;;;;5006525;28;20030;-53
2023/07/30 10:05:12;;;;;;;268.48;147.75;;;;;;;;;;5004111;28;20042;-52
2023/07/30 10:07:38;;;;;;;149.32;122.07;;;;;;;;;;5007427;28;20034;-52
2023/07/30 10:10:04;;;;;;;181.23;139.93;;;;;;;;;;5004125;28;20026;-52
2023/07/30 10:12:31;;;;;;;201.90;173.63;;;;;;;;;;5007112;28;20426;-52
2023/07/30 10:14:56;;;;;;;237.38;142.70;;;;;;;;;;5005417;28;20057;-52
2023/07/30 10:17:21;;;;;;;425.27;286.47;;;;;;;;;;5005180;28;20461;-51
2023/07/30 10:19:50;;;;;;;133.95;82.65;;;;;;;;;;5006793;28;20273;-52
2023/07/30 10:22:20;;;;;;;248.27;124.68;;;;;;;;;;5004662;28;20064;-52
2023/07/30 10:24:58;;;;;;;171.40;116.40;;;;;;;;;;5009559;28;20033;-52
2023/07/30 10:27:25;;;;;;;246.63;208.18;;;;;;;;;;5010161;28;20025;-52
2023/07/30 10:30:07;;;;;;;285.58;200.30;;;;;;;;;;5010650;28;20010;-54
2023/07/30 10:32:39;;;;;;;331.02;175.20;;;;;;;;;;5009880;28;20143;-52
2023/07/30 10:35:05;;;;;;;257.15;169.93;;;;;;;;;;5008087;28;20573;-53
2023/07/30 10:37:30;;;;;;;105.07;68.53;;;;;;;;;;5009536;28;20037;-51
2023/07/30 10:39:56;;;;;;;274.17;170.90;;;;;;;;;;5009722;28;20426;-51
2023/07/30 10:42:21;;;;;;;247.87;193.13;;;;;;;;;;5008094;28;20041;-51
2023/07/30 10:44:46;;;;;;;216.27;115.93;;;;;;;;;;5009113;28;20300;-51
2023/07/30 10:47:11;;;;;;;350.77;215.80;;;;;;;;;;5008718;28;20428;-51
2023/07/30 10:49:40;;;;;;;266.10;168.57;;;;;;;;;;5008982;28;20029;-52
2023/07/30 10:52:06;;;;;;;409.65;306.55;;;;;;;;;;5006582;28;20062;-51
2023/07/30 10:54:34;;;;;;;317.55;230.77;;;;;;;;;;5011549;28;20037;-51
2023/07/30 10:57:00;;;;;;;156.65;111.13;;;;;;;;;;5008490;28;20074;-51
2023/07/30 10:59:25;;;;;;;219.50;185.17;;;;;;;;;;5009281;28;20387;-51
2023/07/30 11:01:52;;;;;;;203.90;125.65;;;;;;;;;;5014340;28;20076;-51
2023/07/30 11:04:18;;;;;;;227.20;157.23;;;;;;;;;;5013254;28;20036;-51
2023/07/30 11:06:47;;;;;;;165.18;122.22;;;;;;;;;;5007491;28;20037;-51
2023/07/30 11:09:20;;;;;;;202.80;119.65;;;;;;;;;;5007964;28;20037;-51
2023/07/30 11:11:45;;;;;;;138.02;103.35;;;;;;;;;;5007544;28;20037;-51
2023/07/30 11:14:14;;;;;;;256.05;183.98;;;;;;;;;;5006573;28;20025;-51
2023/07/30 11:16:46;;;;;;;143.55;95.25;;;;;;;;;;5008138;28;20038;-51
2023/07/30 11:19:14;;;;;;;138.52;69.07;;;;;;;;;;5007915;28;20029;-51
2023/07/30 11:21:43;;;;;;;198.38;168.85;;;;;;;;;;5008418;28;20535;-51
2023/07/30 11:24:09;;;;;;;294.08;250.32;;;;;;;;;;5006665;28;20029;-53
2023/07/30 11:26:34;;;;;;;347.13;312.40;;;;;;;;;;5007646;28;20034;-51
2023/07/30 11:28:59;;;;;;;211.00;181.47;;;;;;;;;;5008768;28;20292;-51
2023/07/30 11:31:27;;;;;;;265.03;238.13;;;;;;;;;;5006761;28;20456;-51
2023/07/30 11:33:52;;;;;;;279.02;250.77;;;;;;;;;;5008379;28;20108;-51
2023/07/30 11:36:27;;;;;;;271.25;227.48;;;;;;;;;;5008715;28;20046;-51
2023/07/30 11:38:55;;;;;;;235.60;136.38;;;;;;;;;;5007483;28;20033;-51
2023/07/30 11:41:22;;;;;;;125.07;18.92;;;;;;;;;;5007764;28;20053;-51
2023/07/30 11:43:48;;;;;;;246.35;135.10;;;;;;;;;;5007048;28;20120;-51
2023/07/30 11:46:15;;;;;;;347.67;310.80;;;;;;;;;;5007826;28;20038;-52
2023/07/30 11:48:41;;;;;;;198.55;154.88;;;;;;;;;;5007873;28;20272;-51
2023/07/30 11:51:07;;;;;;;277.63;197.68;;;;;;;;;;5004413;28;20073;-51
2023/07/30 11:53:46;;;;;;;265.70;123.60;;;;;;;;;;5006325;28;20395;-51
2023/07/30 11:56:18;;;;;;;186.63;143.65;;;;;;;;;;5005084;28;20555;-51
2023/07/30 11:58:44;;;;;;;177.07;153.65;;;;;;;;;;5008351;28;20080;-53
2023/07/30 12:01:09;;;;;;;222.90;150.73;;;;;;;;;;5006622;28;20522;-51
2023/07/30 12:03:34;;;;;;;286.47;193.67;;;;;;;;;;5008509;28;22004;-51
2023/07/30 12:06:04;;;;;;;246.63;134.50;;;;;;;;;;5008064;28;20285;-51
2023/07/30 12:08:29;;;;;;;297.80;240.45;;;;;;;;;;5009450;28;20254;-51
2023/07/30 12:10:56;;;;;;;196.57;70.43;;;;;;;;;;5007078;28;20038;-51
2023/07/30 12:13:21;;;;;;;289.65;208.05;;;;;;;;;;5005953;28;20033;-51
2023/07/30 12:15:53;;;;;;;157.80;141.80;;;;;;;;;;5007982;28;20103;-52
2023/07/30 12:18:18;;;;;;;;;;;;;;;;;;5008387;28;20026;-52
2023/07/30 12:20:44;;;;;;;269.73;151.57;;;;;;;;;;5006993;28;19917;-51
2023/07/30 12:23:09;;;;;;;187.93;118.90;;;;;;;;;;5007617;28;20025;-52
2023/07/30 12:25:34;;;;;;;139.20;85.43;;;;;;;;;;5005556;28;20039;-52
2023/07/30 12:27:59;;;;;;;175.30;138.27;;;;;;;;;;5014533;28;20053;-52
2023/07/30 12:30:26;;;;;;;240.80;191.30;;;;;;;;;;5008191;28;20141;-51
2023/07/30 12:32:51;;;;;;;141.02;102.00;;;;;;;;;;5009544;28;20022;-51
2023/07/30 12:35:16;;;;;;;191.53;105.53;;;;;;;;;;5004598;28;20463;-53
2023/07/30 12:37:41;;;;;;;239.50;163.43;;;;;;;;;;5007945;28;20021;-52
2023/07/30 12:40:08;;;;;;;275.40;218.73;;;;;;;;;;5007003;28;20018;-51
2023/07/30 12:42:33;;;;;;;262.50;160.30;;;;;;;;;;5008646;28;20033;-53
2023/07/30 12:44:58;;;;;;;260.10;208.77;;;;;;;;;;5007205;28;20083;-52
2023/07/30 12:47:23;;;;;;;168.43;113.83;;;;;;;;;;5006555;28;20037;-52
2023/07/30 12:49:49;;;;;;;213.23;145.50;;;;;;;;;;5006279;28;20322;-54
2023/07/30 12:52:14;;;;;;;293.83;185.90;;;;;;;;;;5004249;28;20034;-52
2023/07/30 12:54:39;;;;;;;241.43;198.27;;;;;;;;;;5006766;28;20030;-51
2023/07/30 12:57:04;;;;;;;273.93;149.77;;;;;;;;;;5005997;28;20463;-53
2023/07/30 12:59:31;;;;;;;297.10;207.60;;;;;;;;;;5006360;28;20660;-54
2023/07/30 13:01:56;;;;;;;106.00;82.30;;;;;;;;;;5006152;28;20041;-54
2023/07/30 13:04:21;;;;;;;194.52;113.28;;;;;;;;;;5004643;28;20025;-53
2023/07/30 13:06:46;;;;;;;289.10;170.57;;;;;;;;;;5007444;28;20124;-53
2023/07/30 13:09:12;;;;;;;221.03;155.30;;;;;;;;;;5008693;28;20820;-53
2023/07/30 13:11:37;;;;;;;193.33;135.87;;;;;;;;;;5006659;28;20284;-53
2023/07/30 13:14:02;;;;;;;127.60;89.10;;;;;;;;;;5007203;28;20026;-52
2023/07/30 13:16:27;;;;;;;143.37;97.40;;;;;;;;;;5006517;28;20121;-52
2023/07/30 13:18:56;;;;;;;276.60;168.10;;;;;;;;;;5005493;28;20196;-52
2023/07/30 13:21:22;;;;;;;173.40;107.25;;;;;;;;;;5003780;28;20277;-55
2023/07/30 13:23:47;;;;;;;202.53;154.27;;;;;;;;;;5005289;28;20029;-55
2023/07/30 13:26:12;;;;;;;206.53;115.20;;;;;;;;;;5005190;28;20858;-53
2023/07/30 13:28:37;;;;;;;187.50;135.30;;;;;;;;;;5007134;28;20551;-52
2023/07/30 13:31:02;;;;;;;275.70;132.53;;;;;;;;;;5006307;28;20582;-52
2023/07/30 13:33:28;;;;;;;254.10;132.40;;;;;;;;;;5004117;28;20115;-56
2023/07/30 13:35:53;;;;;;;121.17;74.23;;;;;;;;;;5004048;28;20277;-52
2023/07/30 13:38:21;;;;;;;311.20;160.03;;;;;;;;;;5004418;28;20026;-54
2023/07/30 13:40:46;;;;;;;321.73;160.60;;;;;;;;;;5003657;28;20042;-53
2023/07/30 13:43:11;;;;;;;268.03;165.23;;;;;;;;;;5004284;28;20356;-53
2023/07/30 13:45:36;;;;;;;174.23;104.40;;;;;;;;;;5003912;28;20045;-52
2023/07/30 13:48:02;;;;;;;284.47;117.07;;;;;;;;;;5005489;28;20026;-52
2023/07/30 13:50:27;;;;;;;433.75;129.90;;;;;;;;;;5003197;28;20033;-54
2023/07/30 13:52:52;;;;;;;163.00;107.35;;;;;;;;;;5004660;28;20049;-52
2023/07/30 13:55:17;;;;;;;258.47;62.00;;;;;;;;;;5005581;28;20064;-53